Time;durP1;ratioP1;P1;durP2;ratioP2;P2;SDS_P1;SDS_P2;PMS_P1;PMS_P2;Temp;Humidity;BMP_temperature;BMP_pressure;BME280_temperature;BME280_humidity;BME280_pressure;Samples;Min_cycle;Max_cycle;Signal;HPM_P1;HPM_P2
2023/04/12 00:01:26;;;;;;;;;;;;;;;10.87;76.40;98991.38;109262;1257;58605;-75
2023/04/12 00:03:54;;;;;;;;;;;;;;;10.76;76.48;98987.02;109297;1257;73574;-75
2023/04/12 00:06:24;;;;;;;;;;;;;;;10.65;76.85;98984.21;109328;1256;67914;-76
2023/04/12 00:08:53;;;;;;;;;;;;;;;10.57;77.13;98983.92;109320;1257;70898;-75
2023/04/12 00:11:21;;;;;;;;;;;;;;;10.53;76.73;98980.11;109169;1257;60848;-76
2023/04/12 00:13:49;;;;;;;;;;;;;;;10.48;77.17;98978.31;109300;1258;58337;-75
2023/04/12 00:16:18;;;;;;;;;;;;;;;10.45;77.15;98978.48;109312;1257;73479;-74
2023/04/12 00:18:47;;;;;;;;;;;;;;;10.43;77.36;98976.60;109225;1257;67754;-74
2023/04/12 00:21:19;;;;;;;;;;;;;;;10.43;76.79;98968.75;109210;1257;71730;-74
2023/04/12 00:23:48;;;;;;;;;;;;;;;10.46;76.73;98971.27;109170;1257;63036;-74
2023/04/12 00:26:16;;;;;;;;;;;;;;;10.49;76.51;98968.98;109279;1256;60235;-74
2023/04/12 00:28:44;;;;;;;;;;;;;;;10.52;76.63;98964.06;109162;1262;72568;-74
2023/04/12 00:31:13;;;;;;;;;;;;;;;10.53;76.49;98962.25;109255;1256;68257;-76
2023/04/12 00:33:42;;;;;;;;;;;;;;;10.51;76.92;98958.75;109128;1257;71792;-75
2023/04/12 00:36:14;;;;;;;;;;;;;;;10.50;76.79;98957.08;109156;1257;59249;-75
2023/04/12 00:38:46;;;;;;;;;;;;;;;10.48;77.32;98951.50;109267;1256;59675;-74
2023/04/12 00:41:14;;;;;;;;;;;;;;;10.45;77.99;98949.50;109280;1257;71663;-75
2023/04/12 00:43:46;;;;;;;;;;;;;;;10.40;78.73;98945.14;109192;1257;67334;-75
2023/04/12 00:46:16;;;;;;;;;;;;;;;10.35;79.12;98942.87;109248;1257;72723;-76
2023/04/12 00:48:46;;;;;;;;;;;;;;;10.31;79.60;98941.79;109109;1257;63148;-75
2023/04/12 00:51:16;;;;;;;;;;;;;;;10.27;80.12;98944.89;109253;1255;59952;-74
2023/04/12 00:53:47;;;;;;;;;;;;;;;10.27;80.31;98947.20;109278;1256;74756;-75
2023/04/12 00:56:16;;;;;;;;;;;;;;;10.25;80.45;98948.92;109305;1257;67045;-75
2023/04/12 00:58:44;;;;;;;;;;;;;;;10.24;80.34;98948.07;109104;1257;71653;-74
2023/04/12 01:01:18;;;;;;;;;;;;;;;10.24;80.88;98948.91;109230;1257;60434;-76
2023/04/12 01:03:46;;;;;;;;;;;;;;;10.21;81.08;98944.30;109251;1256;60345;-76
2023/04/12 01:06:17;;;;;;;;;;;;;;;10.17;81.80;98942.99;109247;1256;73955;-75
2023/04/12 01:09:01;;;;;;;;;;;;;;;10.14;82.10;98943.11;109173;1256;66853;-75
2023/04/12 01:11:36;;;;;;;;;;;;;;;10.10;82.42;98940.86;109234;1256;73294;-78
2023/04/12 01:14:08;;;;;;;;;;;;;;;10.06;83.06;98940.41;109139;1257;59507;-75
2023/04/12 01:16:57;;;;;;;;;;;;;;;10.04;83.65;98936.44;109190;1256;60088;-77
2023/04/12 01:19:33;;;;;;;;;;;;;;;9.98;84.65;98933.19;109145;1256;73537;-77
2023/04/12 01:22:06;;;;;;;;;;;;;;;9.92;85.48;98926.19;109285;1257;67103;-77
2023/04/12 01:24:59;;;;;;;;;;;;;;;9.86;86.09;98929.50;109253;1257;72558;-77
2023/04/12 01:27:29;;;;;;;;;;;;;;;9.82;86.88;98925.52;109068;1257;61833;-77
2023/04/12 01:29:58;;;;;;;;;;;;;;;9.81;87.77;98921.59;109156;1257;58471;-78
2023/04/12 01:32:27;;;;;;;;;;;;;;;9.76;89.00;98918.17;109141;1257;73889;-78
2023/04/12 01:34:56;;;;;;;;;;;;;;;9.71;89.46;98914.95;109182;1257;67649;-78
2023/04/12 01:37:24;;;;;;;;;;;;;;;9.66;90.07;98911.23;109143;1257;72163;-78
2023/04/12 01:39:56;;;;;;;;;;;;;;;9.61;90.69;98908.73;109128;1257;60660;-77
2023/04/12 01:42:24;;;;;;;;;;;;;;;9.55;91.63;98909.20;109141;1257;59896;-79
2023/04/12 01:44:52;;;;;;;;;;;;;;;9.50;92.24;98903.95;109241;1257;74769;-75
2023/04/12 01:47:21;;;;;;;;;;;;;;;9.49;92.80;98900.73;109261;1256;65856;-75
2023/04/12 01:49:58;;;;;;;;;;;;;;;9.48;93.59;98896.81;109149;1257;71999;-78
2023/04/12 01:52:26;;;;;;;;;;;;;;;9.43;94.56;98893.68;109133;1257;59885;-77
2023/04/12 01:54:56;;;;;;;;;;;;;;;9.37;94.93;98889.73;109136;1257;59042;-78
2023/04/12 01:57:24;;;;;;;;;;;;;;;9.33;95.74;98886.33;109020;1257;74032;-77
2023/04/12 01:59:53;;;;;;;;;;;;;;;9.30;96.04;98882.23;109182;1257;68122;-77
2023/04/12 02:02:28;;;;;;;;;;;;;;;9.27;96.62;98877.92;109200;1256;71941;-76
2023/04/12 02:04:58;;;;;;;;;;;;;;;9.28;96.93;98877.66;109222;1257;60794;-77
2023/04/12 02:07:26;;;;;;;;;;;;;;;9.28;97.60;98878.15;109170;1262;58226;-78
2023/04/12 02:10:01;;;;;;;;;;;;;;;9.26;98.33;98873.09;109233;1256;75283;-77
2023/04/12 02:12:30;;;;;;;;;;;;;;;9.24;98.32;98871.85;109217;1256;69111;-77
2023/04/12 02:14:59;;;;;;;;;;;;;;;9.21;98.51;98866.26;109213;1256;73508;-78
2023/04/12 02:17:32;;;;;;;;;;;;;;;9.19;99.03;98866.63;109200;1256;63370;-78
2023/04/12 02:20:01;;;;;;;;;;;;;;;9.18;99.08;98862.59;109242;1256;58250;-78
2023/04/12 02:22:30;;;;;;;;;;;;;;;9.17;99.83;98859.42;109139;1257;72985;-78
2023/04/12 02:25:01;;;;;;;;;;;;;;;9.15;99.96;98858.88;109158;1257;66641;-79
2023/04/12 02:27:30;;;;;;;;;;;;;;;9.12;100.00;98852.84;109118;1257;72503;-78
2023/04/12 02:29:59;;;;;;;;;;;;;;;9.12;100.00;98856.82;109089;1259;59942;-78
2023/04/12 02:32:31;;;;;;;;;;;;;;;9.10;100.00;98856.13;109134;1257;58498;-78
2023/04/12 02:35:01;;;;;;;;;;;;;;;9.06;100.00;98849.77;109134;1257;73165;-78
2023/04/12 02:37:30;;;;;;;;;;;;;;;9.07;100.00;98850.58;109052;1257;66523;-78
2023/04/12 02:40:01;;;;;;;;;;;;;;;9.08;100.00;98847.36;109113;1257;72797;-78
2023/04/12 02:42:30;;;;;;;;;;;;;;;9.09;100.00;98848.02;109092;1257;62233;-79
2023/04/12 02:44:58;;;;;;;;;;;;;;;9.12;100.00;98844.75;109058;1258;61156;-78
2023/04/12 02:47:28;;;;;;;;;;;;;;;9.11;100.00;98847.80;109165;1257;72535;-79
2023/04/12 02:49:58;;;;;;;;;;;;;;;9.09;100.00;98844.52;109133;1257;68185;-78
2023/04/12 02:52:28;;;;;;;;;;;;;;;9.08;100.00;98839.85;109119;1257;71814;-78
2023/04/12 02:55:14;;;;;;;;;;;;;;;9.06;100.00;98839.04;109117;1257;61182;-79
2023/04/12 02:57:46;;;;;;;;;;;;;;;9.03;100.00;98838.27;109108;1257;59844;-79
2023/04/12 03:00:17;;;;;;;;;;;;;;;8.99;100.00;98835.67;109129;1257;74787;-79
2023/04/12 03:03:11;;;;;;;;;;;;;;;8.96;100.00;98830.84;109139;1257;70880;-79
2023/04/12 03:05:46;;;;;;;;;;;;;;;8.97;100.00;98828.48;109166;1257;70856;-81
2023/04/12 03:08:19;;;;;;;;;;;;;;;9.00;100.00;98828.44;109118;1258;61582;-80
2023/04/12 03:10:54;;;;;;;;;;;;;;;9.01;100.00;98828.83;109152;1257;61112;-80
2023/04/12 03:13:23;;;;;;;;;;;;;;;9.00;100.00;98825.13;108980;1257;74855;-80
2023/04/12 03:15:55;;;;;;;;;;;;;;;8.99;100.00;98824.67;109137;1257;67982;-80
2023/04/12 03:18:28;;;;;;;;;;;;;;;8.96;100.00;98821.98;109132;1257;72834;-79
2023/04/12 03:21:01;;;;;;;;;;;;;;;8.95;100.00;98821.50;109127;1257;60664;-80
2023/04/12 03:23:30;;;;;;;;;;;;;;;8.95;100.00;98818.06;109147;1257;59988;-78
2023/04/12 03:26:06;;;;;;;;;;;;;;;8.93;100.00;98815.42;109080;1260;73687;-80
2023/04/12 03:28:38;;;;;;;;;;;;;;;8.92;100.00;98816.55;109046;1257;68143;-79
2023/04/12 03:31:06;;;;;;;;;;;;;;;8.91;100.00;98811.84;109120;1257;70624;-80
2023/04/12 03:33:40;;;;;;;;;;;;;;;8.91;100.00;98808.66;109055;1257;62228;-77
2023/04/12 03:36:15;;;;;;;;;;;;;;;8.90;100.00;98806.77;108991;1257;58147;-75
2023/04/12 03:38:44;;;;;;;;;;;;;;;8.87;100.00;98804.02;109054;1257;72591;-79
2023/04/12 03:41:12;;;;;;;;;;;;;;;8.83;100.00;98801.32;109077;1257;68432;-77
2023/04/12 03:43:41;;;;;;;;;;;;;;;8.82;100.00;98798.33;109102;1257;72968;-76
2023/04/12 03:46:16;;;;;;;;;;;;;;;8.81;100.00;98798.04;109073;1257;61863;-77
2023/04/12 03:48:48;;;;;;;;;;;;;;;8.81;100.00;98801.52;109012;1257;58939;-75
2023/04/12 03:51:16;;;;;;;;;;;;;;;8.83;100.00;98803.08;108580;1257;577258;-77
2023/04/12 03:53:46;;;;;;;;;;;;;;;8.81;100.00;98798.67;109035;1257;68971;-77
2023/04/12 03:56:15;;;;;;;;;;;;;;;8.82;100.00;98798.10;108978;1257;71607;-79
2023/04/12 03:58:45;;;;;;;;;;;;;;;8.82;100.00;98795.96;109062;1257;62120;-80
2023/04/12 04:01:16;;;;;;;;;;;;;;;8.81;100.00;98798.26;109107;1257;59278;-77
2023/04/12 04:03:47;;;;;;;;;;;;;;;8.80;100.00;98798.14;109093;1257;73416;-78
2023/04/12 04:06:24;;;;;;;;;;;;;;;8.78;100.00;98796.59;109000;1257;68921;-81
2023/04/12 04:08:58;;;;;;;;;;;;;;;8.77;100.00;98797.11;109083;1257;74027;-78
2023/04/12 04:11:27;;;;;;;;;;;;;;;8.78;100.00;98794.01;109053;1257;60794;-79
2023/04/12 04:14:00;;;;;;;;;;;;;;;8.81;100.00;98799.16;109088;1257;59843;-78
2023/04/12 04:16:29;;;;;;;;;;;;;;;8.83;100.00;98799.60;109086;1257;72405;-77
2023/04/12 04:19:00;;;;;;;;;;;;;;;8.86;100.00;98799.03;109072;1257;66394;-80
2023/04/12 04:21:31;;;;;;;;;;;;;;;8.89;100.00;98794.38;109095;1257;73694;-78
2023/04/12 04:24:01;;;;;;;;;;;;;;;8.89;100.00;98794.00;109014;1258;59349;-78
2023/04/12 04:26:37;;;;;;;;;;;;;;;8.88;100.00;98791.05;109050;1259;60361;-83
2023/04/12 04:29:15;;;;;;;;;;;;;;;8.89;100.00;98790.41;109004;1260;74017;-81
2023/04/12 04:31:46;;;;;;;;;;;;;;;8.88;100.00;98790.98;109040;1259;67951;-76
2023/04/12 04:34:24;;;;;;;;;;;;;;;8.89;100.00;98791.00;109041;1260;72298;-80
2023/04/12 04:36:59;;;;;;;;;;;;;;;8.91;100.00;98790.43;109016;1259;61750;-80
2023/04/12 04:39:35;;;;;;;;;;;;;;;8.94;100.00;98791.51;109072;1259;58523;-79
2023/04/12 04:42:05;;;;;;;;;;;;;;;8.97;100.00;98787.61;109049;1259;73877;-77
2023/04/12 04:44:46;;;;;;;;;;;;;;;8.98;100.00;98787.61;109013;1259;67891;-79
2023/04/12 04:47:16;;;;;;;;;;;;;;;8.96;100.00;98789.55;109027;1259;73601;-82
2023/04/12 04:49:48;;;;;;;;;;;;;;;8.95;100.00;98790.66;109105;1258;62589;-86
2023/04/12 04:52:27;;;;;;;;;;;;;;;8.92;100.00;98783.02;109108;1259;61359;-84
2023/04/12 04:55:02;;;;;;;;;;;;;;;8.92;100.00;98787.05;109016;1262;74120;-82
2023/04/12 04:57:41;;;;;;;;;;;;;;;8.91;100.00;98784.33;109110;1259;68408;-80
2023/04/12 05:00:16;;;;;;;;;;;;;;;8.91;100.00;98784.91;108934;1259;71681;-77
2023/04/12 05:02:58;;;;;;;;;;;;;;;8.91;100.00;98784.37;108951;1259;61921;-79
2023/04/12 05:05:32;;;;;;;;;;;;;;;8.95;100.00;98785.02;109032;1259;59850;-79
2023/04/12 05:08:16;;;;;;;;;;;;;;;9.00;100.00;98784.67;109061;1258;73250;-78
2023/04/12 05:10:52;;;;;;;;;;;;;;;8.97;100.00;98785.30;109000;1259;67968;-82
2023/04/12 05:13:28;;;;;;;;;;;;;;;8.95;100.00;98784.38;109000;1258;74138;-79
2023/04/12 05:15:58;;;;;;;;;;;;;;;8.94;100.00;98783.23;109002;1259;61772;-78
2023/04/12 05:18:37;;;;;;;;;;;;;;;8.95;100.00;98787.06;109078;1259;60327;-80
2023/04/12 05:21:08;;;;;;;;;;;;;;;8.96;100.00;98787.35;108967;1259;73553;-80
2023/04/12 05:31:21;;;;;;;;;;;;;;;9.03;100.00;98773.91;102912;1289;598828;-75
2023/04/12 05:33:53;;;;;;;;;;;;;;;9.02;100.00;98773.30;105126;1269;60289;-77
2023/04/12 05:36:25;;;;;;;;;;;;;;;9.03;100.00;98774.11;105092;1267;60742;-76
2023/04/12 05:38:54;;;;;;;;;;;;;;;9.04;100.00;98771.23;104984;1271;72967;-78
2023/04/12 05:41:23;;;;;;;;;;;;;;;9.02;100.00;98767.77;105118;1271;68276;-77
2023/04/12 05:43:51;;;;;;;;;;;;;;;9.02;100.00;98771.11;104247;1264;1705695;-76
2023/04/12 05:46:29;;;;;;;;;;;;;;;9.01;100.00;98766.83;105527;1257;64116;-73
2023/04/12 05:48:58;;;;;;;;;;;;;;;9.01;100.00;98764.46;105775;1257;61948;-75
2023/04/12 05:51:27;;;;;;;;;;;;;;;9.00;100.00;98763.82;105613;1259;73231;-76
2023/04/12 05:54:14;;;;;;;;;;;;;;;9.01;100.00;98763.29;105462;1257;70576;-75
2023/04/12 05:56:42;;;;;;;;;;;;;;;9.04;100.00;98762.64;105592;1257;74130;-75
2023/04/12 05:59:18;;;;;;;;;;;;;;;9.07;100.00;98760.40;105594;1257;61709;-76
2023/04/12 06:01:48;;;;;;;;;;;;;;;9.09;100.00;98758.38;105743;1258;61506;-78
2023/04/12 06:04:19;;;;;;;;;;;;;;;9.12;100.00;98756.39;105605;1257;73830;-76
2023/04/12 06:06:51;;;;;;;;;;;;;;;9.10;100.00;98751.45;105688;1257;67925;-74
2023/04/12 06:09:19;;;;;;;;;;;;;;;9.06;100.00;98751.98;105600;1264;71358;-77
2023/04/12 06:11:47;;;;;;;;;;;;;;;9.03;100.00;98750.89;105566;1257;61447;-75
2023/04/12 06:14:17;;;;;;;;;;;;;;;9.03;100.00;98750.08;105623;1261;61102;-77
2023/04/12 06:16:46;;;;;;;;;;;;;;;9.04;100.00;98747.63;105460;1262;72838;-76
2023/04/12 06:19:14;;;;;;;;;;;;;;;9.03;100.00;98748.64;105469;1262;68839;-76
2023/04/12 06:21:43;;;;;;;;;;;;;;;9.05;100.00;98747.42;105619;1257;74372;-76
2023/04/12 06:24:12;;;;;;;;;;;;;;;9.08;100.00;98747.20;106018;1254;61546;-73
2023/04/12 06:26:41;;;;;;;;;;;;;;;9.10;100.00;98742.56;105783;1254;59705;-77
2023/04/12 06:29:12;;;;;;;;;;;;;;;9.12;100.00;98742.60;106044;1258;73335;-79
2023/04/12 06:31:40;;;;;;;;;;;;;;;9.13;100.00;98737.46;105600;1260;69556;-77
2023/04/12 06:34:08;;;;;;;;;;;;;;;9.11;100.00;98736.06;105799;1259;73187;-78
2023/04/12 06:36:40;;;;;;;;;;;;;;;9.11;100.00;98729.02;105938;1254;63864;-78
2023/04/12 06:39:10;;;;;;;;;;;;;;;9.14;100.00;98731.20;105906;1259;60908;-77
2023/04/12 06:41:39;;;;;;;;;;;;;;;9.15;100.00;98728.84;105896;1259;73167;-76
2023/04/12 06:44:08;;;;;;;;;;;;;;;9.16;100.00;98727.70;105944;1254;69882;-77
2023/04/12 06:46:38;;;;;;;;;;;;;;;9.17;100.00;98732.48;105858;1254;73301;-74
2023/04/12 06:49:07;;;;;;;;;;;;;;;9.18;100.00;98730.17;105908;1253;63471;-75
2023/04/12 06:51:35;;;;;;;;;;;;;;;9.19;100.00;98730.56;105770;1254;61972;-75
2023/04/12 06:54:03;;;;;;;;;;;;;;;9.21;100.00;98730.56;105819;1260;74329;-79
2023/04/12 06:56:32;;;;;;;;;;;;;;;9.24;100.00;98731.27;106115;1255;68191;-75
2023/04/12 06:59:00;;;;;;;;;;;;;;;9.26;100.00;98728.86;105934;1254;72559;-75
2023/04/12 07:01:28;;;;;;;;;;;;;;;9.24;100.00;98728.43;105919;1254;64029;-79
2023/04/12 07:03:57;;;;;;;;;;;;;;;9.22;100.00;98728.69;105953;1254;60302;-77
2023/04/12 07:06:26;;;;;;;;;;;;;;;9.19;100.00;98725.42;105925;1256;73949;-77
2023/04/12 07:08:58;;;;;;;;;;;;;;;9.19;100.00;98725.25;105909;1254;69082;-78
2023/04/12 07:11:27;;;;;;;;;;;;;;;9.19;100.00;98724.66;105929;1256;74253;-82
2023/04/12 07:14:00;;;;;;;;;;;;;;;9.22;100.00;98722.58;105784;1254;62470;-77
2023/04/12 07:16:30;;;;;;;;;;;;;;;9.24;100.00;98722.63;105910;1253;60320;-76
2023/04/12 07:18:58;;;;;;;;;;;;;;;9.26;100.00;98724.67;105914;1253;74798;-77
2023/04/12 07:21:32;;;;;;;;;;;;;;;9.31;100.00;98726.14;105778;1254;69654;-80
2023/04/12 07:24:00;;;;;;;;;;;;;;;9.37;100.00;98725.19;106146;1254;71933;-77
2023/04/12 07:26:30;;;;;;;;;;;;;;;9.44;100.00;98721.88;105945;1253;63095;-77
2023/04/12 07:29:01;;;;;;;;;;;;;;;9.46;100.00;98715.59;105938;1253;61678;-79
2023/04/12 07:31:29;;;;;;;;;;;;;;;9.50;100.00;98713.18;105822;1254;73782;-80
2023/04/12 07:33:57;;;;;;;;;;;;;;;9.53;100.00;98712.81;106160;1254;67019;-77
2023/04/12 07:36:26;;;;;;;;;;;;;;;9.53;100.00;98713.79;106047;1254;72673;-78
2023/04/12 07:38:54;;;;;;;;;;;;;;;9.52;100.00;98717.16;106025;1253;63586;-79
2023/04/12 07:41:26;;;;;;;;;;;;;;;9.50;100.00;98715.38;105876;1253;61593;-74
2023/04/12 07:43:54;;;;;;;;;;;;;;;9.46;100.00;98719.88;106048;1260;73020;-78
2023/04/12 07:46:22;;;;;;;;;;;;;;;9.44;100.00;98718.76;106065;1255;69875;-79
2023/04/12 07:48:51;;;;;;;;;;;;;;;9.43;100.00;98716.08;105957;1260;74099;-80
2023/04/12 07:51:19;;;;;;;;;;;;;;;9.43;100.00;98711.41;105851;1254;63824;-76
2023/04/12 07:53:52;;;;;;;;;;;;;;;9.43;100.00;98712.64;105981;1255;61646;-77
2023/04/12 07:56:20;;;;;;;;;;;;;;;9.47;100.00;98714.73;106373;1257;74501;-78
2023/04/12 07:58:49;;;;;;;;;;;;;;;9.50;100.00;98712.33;105913;1257;68282;-79
2023/04/12 08:01:21;;;;;;;;;;;;;;;9.50;100.00;98713.23;105695;1262;74401;-79
2023/04/12 08:03:50;;;;;;;;;;;;;;;9.49;100.00;98711.80;105711;1261;61033;-80
2023/04/12 08:06:18;;;;;;;;;;;;;;;9.49;100.00;98708.56;105800;1263;60431;-76
2023/04/12 08:08:46;;;;;;;;;;;;;;;9.51;100.00;98710.60;105898;1261;72194;-76
2023/04/12 08:11:15;;;;;;;;;;;;;;;9.55;100.00;98710.55;105846;1257;68416;-76
2023/04/12 08:13:50;;;;;;;;;;;;;;;9.57;100.00;98707.28;105626;1256;74522;-77
2023/04/12 08:16:22;;;;;;;;;;;;;;;9.59;100.00;98709.21;105716;1256;63918;-76
2023/04/12 08:18:55;;;;;;;;;;;;;;;9.58;100.00;98704.61;105552;1262;61718;-76
2023/04/12 08:21:23;;;;;;;;;;;;;;;9.60;100.00;98704.70;105802;1262;73624;-84
2023/04/12 08:23:52;;;;;;;;;;;;;;;9.63;100.00;98702.89;105569;1257;71020;-82
2023/04/12 08:26:21;;;;;;;;;;;;;;;9.64;100.00;98702.55;105599;1257;74571;-83
2023/04/12 08:28:49;;;;;;;;;;;;;;;9.66;100.00;98700.36;105607;1261;64197;-82
2023/04/12 08:31:19;;;;;;;;;;;;;;;9.66;100.00;98703.04;106039;1256;60085;-80
2023/04/12 08:33:48;;;;;;;;;;;;;;;9.65;100.00;98701.65;105894;1257;74010;-81
2023/04/12 08:36:17;;;;;;;;;;;;;;;9.66;100.00;98703.52;105670;1257;69787;-82
2023/04/12 08:38:51;;;;;;;;;;;;;;;9.66;100.00;98698.80;105567;1260;74724;-82
2023/04/12 08:41:22;;;;;;;;;;;;;;;9.70;100.00;98699.45;105744;1257;63672;-80
2023/04/12 08:43:50;;;;;;;;;;;;;;;9.72;100.00;98693.06;105697;1261;62185;-78
2023/04/12 08:46:19;;;;;;;;;;;;;;;9.75;100.00;98684.63;105497;1257;73406;-80
2023/04/12 08:48:56;;;;;;;;;;;;;;;9.76;100.00;98690.86;105592;1257;67200;-82
2023/04/12 08:51:25;;;;;;;;;;;;;;;9.77;100.00;98689.36;105817;1260;72824;-80
2023/04/12 08:53:54;;;;;;;;;;;;;;;9.78;100.00;98687.06;105593;1255;62773;-77
2023/04/12 08:56:30;;;;;;;;;;;;;;;9.81;100.00;98684.48;105606;1262;61441;-78
2023/04/12 08:59:00;;;;;;;;;;;;;;;9.83;100.00;98681.58;105583;1259;73984;-84
2023/04/12 09:01:28;;;;;;;;;;;;;;;9.86;100.00;98680.11;105638;1262;68664;-83
2023/04/12 09:04:04;;;;;;;;;;;;;;;9.92;100.00;98678.28;105756;1257;74472;-83
2023/04/12 09:06:34;;;;;;;;;;;;;;;9.96;100.00;98677.92;105681;1257;63449;-89
2023/04/12 09:09:05;;;;;;;;;;;;;;;9.99;100.00;98673.65;105724;1257;61947;-82
2023/04/12 09:11:42;;;;;;;;;;;;;;;9.99;100.00;98669.31;105643;1259;74346;-89
2023/04/12 09:14:23;;;;;;;;;;;;;;;9.96;100.00;98665.89;105550;1256;69461;-88
2023/04/12 09:16:51;;;;;;;;;;;;;;;9.97;100.00;98667.33;105583;1261;74225;-88
2023/04/12 09:19:47;;;;;;;;;;;;;;;10.00;100.00;98668.83;105594;1257;64287;-90
2023/04/12 09:22:15;;;;;;;;;;;;;;;10.03;100.00;98664.84;105730;1256;59548;-85
2023/04/12 09:24:48;;;;;;;;;;;;;;;10.05;100.00;98661.73;105746;1255;73644;-86
2023/04/12 09:27:19;;;;;;;;;;;;;;;10.03;100.00;98661.61;105773;1263;69087;-85
2023/04/12 09:29:51;;;;;;;;;;;;;;;10.02;100.00;98660.17;105639;1262;74472;-88
2023/04/12 09:32:30;;;;;;;;;;;;;;;10.01;100.00;98661.05;105554;1261;61497;-74
2023/04/12 09:35:01;;;;;;;;;;;;;;;10.02;100.00;98658.84;105518;1256;61419;-75
2023/04/12 09:37:30;;;;;;;;;;;;;;;10.02;100.00;98657.92;105465;1263;72934;-80
2023/04/12 09:40:04;;;;;;;;;;;;;;;10.02;100.00;98653.69;105741;1260;68939;-80
2023/04/12 09:42:33;;;;;;;;;;;;;;;10.05;100.00;98656.46;105684;1260;74021;-77
2023/04/12 09:45:18;;;;;;;;;;;;;;;10.06;100.00;98653.89;105543;1263;61528;-73
2023/04/12 09:47:47;;;;;;;;;;;;;;;10.05;100.00;98654.15;105271;1257;61189;-80
2023/04/12 09:50:22;;;;;;;;;;;;;;;10.00;100.00;98654.42;105796;1262;75501;-76
2023/04/12 09:52:57;;;;;;;;;;;;;;;10.03;100.00;98653.78;105727;1262;68156;-77
2023/04/12 09:55:27;;;;;;;;;;;;;;;10.10;100.00;98655.06;105774;1260;74610;-75
2023/04/12 09:57:55;;;;;;;;;;;;;;;10.14;100.00;98654.56;105581;1257;63618;-73
2023/04/12 10:00:25;;;;;;;;;;;;;;;10.16;100.00;98653.19;105600;1257;60326;-72
2023/04/12 10:02:55;;;;;;;;;;;;;;;10.21;100.00;98653.23;105767;1257;72700;-76
2023/04/12 10:05:24;;;;;;;;;;;;;;;10.25;100.00;98652.80;105547;1261;68565;-73
2023/04/12 10:07:54;;;;;;;;;;;;;;;10.26;100.00;98649.48;105651;1261;73550;-77
2023/04/12 10:10:23;;;;;;;;;;;;;;;10.26;100.00;98647.42;105635;1257;62260;-75
2023/04/12 10:12:51;;;;;;;;;;;;;;;10.21;100.00;98647.06;105685;1259;60462;-76
2023/04/12 10:15:20;;;;;;;;;;;;;;;10.20;100.00;98650.98;105724;1256;75409;-75
2023/04/12 10:17:57;;;;;;;;;;;;;;;10.16;100.00;98651.26;105664;1258;69495;-76
2023/04/12 10:20:25;;;;;;;;;;;;;;;10.14;100.00;98652.09;105601;1259;73924;-78
2023/04/12 10:22:58;;;;;;;;;;;;;;;10.14;100.00;98652.58;105608;1260;63514;-75
2023/04/12 10:25:29;;;;;;;;;;;;;;;10.15;100.00;98650.55;105708;1260;61065;-76
2023/04/12 10:28:12;;;;;;;;;;;;;;;10.18;100.00;98652.91;105796;1259;74055;-78
2023/04/12 10:30:41;;;;;;;;;;;;;;;10.18;100.00;98650.23;105407;1264;69574;-75
2023/04/12 10:33:30;;;;;;;;;;;;;;;10.17;100.00;98648.88;105560;1257;75661;-76
2023/04/12 10:36:09;;;;;;;;;;;;;;;10.19;100.00;98648.67;105982;1256;61960;-78
2023/04/12 10:39:06;;;;;;;;;;;;;;;10.23;100.00;98647.86;105883;1261;61422;-80
2023/04/12 10:41:35;;;;;;;;;;;;;;;10.28;100.00;98644.67;105904;1256;75006;-71
2023/04/12 10:44:22;;;;;;;;;;;;;;;10.30;100.00;98641.98;105618;1263;68343;-73
2023/04/12 10:46:50;;;;;;;;;;;;;;;10.30;100.00;98645.95;105801;1260;71189;-76
2023/04/12 10:49:18;;;;;;;;;;;;;;;10.31;100.00;98643.54;105572;1261;62847;-73
2023/04/12 10:52:09;;;;;;;;;;;;;;;10.33;100.00;98640.09;105696;1261;59519;-74
2023/04/12 10:54:38;;;;;;;;;;;;;;;10.38;100.00;98639.96;105806;1259;75814;-76
2023/04/12 10:57:28;;;;;;;;;;;;;;;10.40;100.00;98636.85;105611;1257;68947;-77
2023/04/12 10:59:58;;;;;;;;;;;;;;;10.43;100.00;98641.52;105530;1263;72545;-73
2023/04/12 11:02:27;;;;;;;;;;;;;;;10.46;100.00;98641.44;105672;1262;60842;-77
2023/04/12 11:05:04;;;;;;;;;;;;;;;10.46;100.00;98641.05;105613;1257;60918;-80
2023/04/12 11:08:14;;;;;;;;;;;;;;;10.51;100.00;98642.77;105344;1260;75400;-80
2023/04/12 11:11:01;;;;;;;;;;;;;;;10.52;100.00;98641.63;105799;1261;67490;-75
2023/04/12 11:13:34;;;;;;;;;;;;;;;10.49;100.00;98638.31;105746;1258;73359;-77
2023/04/12 11:16:05;;;;;;;;;;;;;;;10.46;100.00;98637.77;105768;1257;62714;-76
2023/04/12 11:18:35;;;;;;;;;;;;;;;10.46;100.00;98639.81;105812;1255;61939;-75
2023/04/12 11:21:04;;;;;;;;;;;;;;;10.47;100.00;98635.63;105751;1260;75747;-76
2023/04/12 11:23:53;;;;;;;;;;;;;;;10.52;100.00;98639.54;105394;1259;67811;-78
2023/04/12 11:26:21;;;;;;;;;;;;;;;10.58;100.00;98636.71;105462;1261;73989;-72
2023/04/12 11:28:52;;;;;;;;;;;;;;;10.60;100.00;98633.95;105406;1262;61854;-72
2023/04/12 11:31:21;;;;;;;;;;;;;;;10.57;100.00;98631.39;104981;1265;60335;-77
2023/04/12 11:33:50;;;;;;;;;;;;;;;10.55;100.00;98634.41;105445;1261;74680;-86
2023/04/12 11:36:18;;;;;;;;;;;;;;;10.57;100.00;98634.61;105398;1263;68578;-76
2023/04/12 11:38:49;;;;;;;;;;;;;;;10.60;100.00;98628.69;105459;1267;73503;-74
2023/04/12 11:41:17;;;;;;;;;;;;;;;10.59;100.00;98628.11;105453;1260;62977;-76
2023/04/12 11:43:46;;;;;;;;;;;;;;;10.59;100.00;98628.05;105740;1260;60494;-73
2023/04/12 11:46:17;;;;;;;;;;;;;;;10.62;100.00;98628.20;105711;1260;74812;-74
2023/04/12 11:48:46;;;;;;;;;;;;;;;10.65;100.00;98629.52;105606;1263;68308;-73
2023/04/12 11:51:17;;;;;;;;;;;;;;;10.66;100.00;98625.81;105201;1258;72825;-75
2023/04/12 11:53:51;;;;;;;;;;;;;;;10.65;100.00;98623.23;105881;1260;63754;-79
2023/04/12 11:56:19;;;;;;;;;;;;;;;10.68;100.00;98623.60;105859;1254;62195;-73
2023/04/12 11:58:48;;;;;;;;;;;;;;;10.72;100.00;98625.46;105863;1260;75575;-73
2023/04/12 12:01:16;;;;;;;;;;;;;;;10.72;100.00;98623.74;105775;1254;68493;-75
2023/04/12 12:03:45;;;;;;;;;;;;;;;10.71;100.00;98621.17;105895;1258;73595;-74
2023/04/12 12:06:14;;;;;;;;;;;;;;;10.65;100.00;98621.08;105805;1260;60816;-75
2023/04/12 12:08:42;;;;;;;;;;;;;;;10.66;100.00;98616.61;105700;1269;60414;-73
2023/04/12 12:11:10;;;;;;;;;;;;;;;10.67;100.00;98614.03;105729;1258;72195;-75
2023/04/12 12:13:48;;;;;;;;;;;;;;;10.67;100.00;98614.84;105764;1260;67528;-76
2023/04/12 12:16:16;;;;;;;;;;;;;;;10.67;100.00;98611.56;105663;1260;72039;-76
2023/04/12 12:18:45;;;;;;;;;;;;;;;10.66;100.00;98607.64;105796;1256;61850;-75
2023/04/12 12:21:13;;;;;;;;;;;;;;;10.67;100.00;98605.01;105821;1255;61684;-76
2023/04/12 12:23:44;;;;;;;;;;;;;;;10.66;100.00;98600.59;105617;1258;74488;-76
2023/04/12 12:26:19;;;;;;;;;;;;;;;10.65;100.00;98599.09;105641;1257;67976;-77
2023/04/12 12:28:51;;;;;;;;;;;;;;;10.65;100.00;98596.66;105743;1262;74509;-74
2023/04/12 12:31:22;;;;;;;;;;;;;;;10.64;100.00;98595.66;105623;1257;62876;-78
2023/04/12 12:33:55;;;;;;;;;;;;;;;10.65;100.00;98594.04;105719;1256;60483;-77
2023/04/12 12:36:28;;;;;;;;;;;;;;;10.69;100.00;98593.79;105707;1263;74424;-77
2023/04/12 12:38:58;;;;;;;;;;;;;;;10.71;100.00;98592.82;105535;1257;66515;-80
2023/04/12 12:41:26;;;;;;;;;;;;;;;10.74;100.00;98592.42;105635;1262;73170;-80
2023/04/12 12:43:55;;;;;;;;;;;;;;;10.77;100.00;98582.90;105621;1260;61721;-78
2023/04/12 12:46:23;;;;;;;;;;;;;;;10.78;100.00;98579.45;105578;1254;60457;-77
2023/04/12 12:48:58;;;;;;;;;;;;;;;10.78;100.00;98578.64;105772;1256;73878;-77
2023/04/12 12:51:26;;;;;;;;;;;;;;;10.78;100.00;98575.14;105718;1259;67404;-79
2023/04/12 12:53:55;;;;;;;;;;;;;;;10.82;100.00;98579.86;105742;1259;74491;-80
2023/04/12 12:56:29;;;;;;;;;;;;;;;10.85;100.00;98573.38;105642;1261;61642;-77
2023/04/12 12:58:58;;;;;;;;;;;;;;;10.86;100.00;98573.54;105484;1257;61546;-82
2023/04/12 13:01:27;;;;;;;;;;;;;;;10.89;100.00;98563.92;105649;1257;75947;-78
2023/04/12 13:03:55;;;;;;;;;;;;;;;10.93;100.00;98565.15;105697;1260;67614;-77
2023/04/12 13:06:26;;;;;;;;;;;;;;;10.94;100.00;98567.28;105705;1257;72231;-75